Samoset, Florida
Current Conditions -  °F | °C
As of 3:53 AM on Sunday 26 Oct 2014 (Local Time) from KSRQ Reporting Station
Clear Clear  
Wind Chill: 60°   Ceiling: Unl
Heat Index: 60°   Visibility: 10mi
Dew Point: 56°   Wind: 5mph
Humidity: 86%   Direction: 70°ENE
Pressure: 29.96"   Gusts: NA
Location:  27.4788°N, 82.5343°W
Report Text: KSRQ 260753Z 07004KT 10SM CLR 16/13 A2996 RMK AO2 SLP143 T01560133
Loading
Personal Weather Stations






























Interactive Weather Map
Tropical Storm Tracking
New forecast layout! Learn more

10-Day Weather Forecast

Advertisements
Track Severe Weather on mobile